createdAt,value
2023-03-01T00:00:36.746Z,182.00
2023-03-01T00:01:39.168Z,182.00
2023-03-01T00:02:41.569Z,180.83
2023-03-01T00:03:44.363Z,178.17
2023-03-01T00:04:47.387Z,174.50
2023-03-01T00:05:49.842Z,170.33
2023-03-01T00:06:52.229Z,168.83
2023-03-01T00:07:55.192Z,169.17
2023-03-01T00:08:57.890Z,169.33
2023-03-01T00:10:00.266Z,168.17
2023-03-01T00:11:18.014Z,168.00
2023-03-01T00:12:20.742Z,167.83
2023-03-01T00:13:23.122Z,165.83
2023-03-01T00:14:25.528Z,164.67
2023-03-01T00:15:27.894Z,163.33
2023-03-01T00:16:34.700Z,163.67
2023-03-01T00:17:37.116Z,165.50
2023-03-01T00:18:39.985Z,170.83
2023-03-01T00:19:42.397Z,177.17
2023-03-01T00:20:53.764Z,190.67
2023-03-01T00:21:56.157Z,203.67
2023-03-01T00:22:58.504Z,201.67
2023-03-01T00:24:01.028Z,195.67
2023-03-01T00:25:04.412Z,193.50
2023-03-01T00:26:09.025Z,192.17
2023-03-01T00:27:11.484Z,191.83
2023-03-01T00:28:13.899Z,191.83
2023-03-01T00:29:16.360Z,192.33
2023-03-01T00:30:18.937Z,193.50
2023-03-01T00:31:24.110Z,192.17
2023-03-01T00:32:26.861Z,188.00
2023-03-01T00:33:29.250Z,170.83
2023-03-01T00:34:31.634Z,169.83
2023-03-01T00:35:35.073Z,165.83
2023-03-01T00:36:38.663Z,158.50
2023-03-01T00:37:42.455Z,160.00
2023-03-01T00:38:46.542Z,160.83
2023-03-01T00:39:49.234Z,161.33
2023-03-01T00:40:51.627Z,159.67
2023-03-01T00:41:54.010Z,160.00
2023-03-01T00:42:56.425Z,159.83
2023-03-01T00:43:58.950Z,159.17
2023-03-01T00:45:01.296Z,159.50
2023-03-01T00:46:15.125Z,161.67
2023-03-01T00:47:17.528Z,166.67
2023-03-01T00:48:19.918Z,168.67
2023-03-01T00:49:22.441Z,169.50
2023-03-01T00:50:24.909Z,173.00
2023-03-01T00:51:28.434Z,174.00
2023-03-01T00:52:30.785Z,172.83
2023-03-01T00:53:33.611Z,171.33
2023-03-01T00:54:35.926Z,170.00
2023-03-01T00:55:38.279Z,168.00
2023-03-01T00:56:40.621Z,166.83
2023-03-01T00:57:42.944Z,165.33
2023-03-01T00:58:45.342Z,165.00
2023-03-01T00:59:47.695Z,165.00
2023-03-01T01:00:50.061Z,165.67
2023-03-01T01:01:52.473Z,167.83
2023-03-01T01:02:55.035Z,168.00
2023-03-01T01:03:58.412Z,168.00
2023-03-01T01:05:01.012Z,168.00
2023-03-01T01:06:10.386Z,168.00
2023-03-01T01:07:12.848Z,167.67
2023-03-01T01:08:15.162Z,167.00
2023-03-01T01:09:18.578Z,166.00
2023-03-01T01:10:20.992Z,165.00
2023-03-01T01:11:27.832Z,165.00
2023-03-01T01:12:30.507Z,163.67
2023-03-01T01:13:32.877Z,164.00
2023-03-01T01:14:35.605Z,163.50
2023-03-01T01:15:38.056Z,162.00
2023-03-01T01:16:40.460Z,160.67
2023-03-01T01:17:42.946Z,160.67
2023-03-01T01:18:46.398Z,160.00
2023-03-01T01:19:49.047Z,160.00
2023-03-01T01:20:51.413Z,160.17
2023-03-01T01:21:53.740Z,160.00
2023-03-01T01:22:56.570Z,159.17
2023-03-01T01:23:59.391Z,159.00
2023-03-01T01:25:01.799Z,159.00
2023-03-01T01:26:11.171Z,159.50
2023-03-01T01:27:13.513Z,162.83
2023-03-01T01:28:15.922Z,165.83
2023-03-01T01:29:18.281Z,169.33
2023-03-01T01:30:20.643Z,170.67
2023-03-01T01:31:24.823Z,169.83
2023-03-01T01:32:27.536Z,169.33
2023-03-01T01:33:30.011Z,169.17
2023-03-01T01:34:32.376Z,168.83
2023-03-01T01:35:34.759Z,166.83
2023-03-01T01:36:37.219Z,165.17
2023-03-01T01:37:39.595Z,165.00
2023-03-01T01:38:43.361Z,166.00
2023-03-01T01:39:45.720Z,167.33
2023-03-01T01:40:49.006Z,168.00
2023-03-01T01:41:51.326Z,168.33
2023-03-01T01:42:53.696Z,169.17
2023-03-01T01:44:14.099Z,169.00
2023-03-01T01:45:35.965Z,168.00
2023-03-01T01:46:41.906Z,167.00
2023-03-01T01:47:44.395Z,170.17
2023-03-01T01:48:51.141Z,180.83
2023-03-01T01:49:56.334Z,183.17
2023-03-01T01:51:02.373Z,184.50
2023-03-01T01:52:10.476Z,192.83
2023-03-01T01:53:19.317Z,189.83
2023-03-01T01:54:27.601Z,187.33
2023-03-01T01:55:30.644Z,184.83
2023-03-01T01:56:33.787Z,180.33
2023-03-01T01:57:43.176Z,172.67
2023-03-01T01:58:46.414Z,166.67
2023-03-01T02:00:00.168Z,164.33
2023-03-01T02:01:03.888Z,162.00
2023-03-01T02:02:06.660Z,162.67
2023-03-01T02:03:12.171Z,162.83
2023-03-01T02:04:14.847Z,162.83
2023-03-01T02:05:23.729Z,162.50
2023-03-01T02:06:31.155Z,160.00
2023-03-01T02:07:34.102Z,155.67
2023-03-01T02:08:40.234Z,155.00
2023-03-01T02:09:47.437Z,155.67
2023-03-01T02:10:50.871Z,156.00
2023-03-01T02:11:53.323Z,155.83
2023-03-01T02:12:57.175Z,156.83
2023-03-01T02:13:59.850Z,159.00
2023-03-01T02:15:02.279Z,159.00
2023-03-01T02:16:06.711Z,159.00
2023-03-01T02:17:09.700Z,160.00
2023-03-01T02:18:14.540Z,159.00
2023-03-01T02:19:31.938Z,159.83
2023-03-01T02:20:50.244Z,157.67
2023-03-01T02:22:28.149Z,156.83
2023-03-01T02:23:31.075Z,157.00
2023-03-01T02:24:46.125Z,156.50
2023-03-01T02:25:55.485Z,156.17
2023-03-01T02:26:59.032Z,157.50
2023-03-01T02:28:19.309Z,159.67
2023-03-01T02:29:23.438Z,161.33
2023-03-01T02:30:26.607Z,161.50
2023-03-01T02:31:44.209Z,160.17
2023-03-01T02:32:47.171Z,157.83
2023-03-01T02:33:49.785Z,157.00
2023-03-01T02:34:56.745Z,156.17
2023-03-01T02:36:01.925Z,156.17
2023-03-01T02:37:09.430Z,157.17
2023-03-01T02:38:11.813Z,159.67
2023-03-01T02:39:18.268Z,161.17
2023-03-01T02:40:22.663Z,164.00
2023-03-01T02:41:27.730Z,165.50
2023-03-01T02:42:38.204Z,169.67
2023-03-01T02:43:40.720Z,174.83
2023-03-01T02:44:43.186Z,174.83
2023-03-01T02:45:53.795Z,173.33
2023-03-01T02:46:58.031Z,172.00
2023-03-01T02:48:00.426Z,171.67
2023-03-01T02:49:02.789Z,170.83
2023-03-01T02:50:23.810Z,170.00
2023-03-01T02:51:40.722Z,170.67
2023-03-01T02:53:12.173Z,170.50
2023-03-01T02:54:34.746Z,172.17
2023-03-01T02:55:37.144Z,172.50
2023-03-01T02:56:39.622Z,172.00
2023-03-01T02:57:44.934Z,175.67
2023-03-01T02:58:51.957Z,184.33
2023-03-01T02:59:56.183Z,182.33
2023-03-01T03:00:58.789Z,181.17
2023-03-01T03:02:01.933Z,179.83
2023-03-01T03:03:04.491Z,176.33
2023-03-01T03:04:10.866Z,173.00
2023-03-01T03:05:19.713Z,169.67
2023-03-01T03:06:22.163Z,167.17
2023-03-01T03:07:24.534Z,165.83
2023-03-01T03:08:26.920Z,164.00
2023-03-01T03:09:29.521Z,164.33
2023-03-01T03:10:34.897Z,166.17
2023-03-01T03:11:37.960Z,165.83
2023-03-01T03:12:40.909Z,166.00
2023-03-01T03:13:49.152Z,166.00
2023-03-01T03:14:51.614Z,166.67
2023-03-01T03:15:54.023Z,166.00
2023-03-01T03:16:56.508Z,165.33
2023-03-01T03:18:00.051Z,162.33
2023-03-01T03:19:06.154Z,161.17
2023-03-01T03:20:12.865Z,158.83
2023-03-01T03:21:16.284Z,159.00
2023-03-01T03:22:18.652Z,158.67
2023-03-01T03:23:22.407Z,156.67
2023-03-01T03:24:24.803Z,155.83
2023-03-01T03:25:29.358Z,154.83
2023-03-01T03:26:32.525Z,154.67
2023-03-01T03:27:35.065Z,156.50
2023-03-01T03:28:40.959Z,157.67
2023-03-01T03:29:43.330Z,158.00
2023-03-01T03:30:46.035Z,156.17
2023-03-01T03:31:48.462Z,155.00
2023-03-01T03:32:53.811Z,152.83
2023-03-01T03:33:57.094Z,148.17
2023-03-01T03:34:59.483Z,147.67
2023-03-01T03:36:01.995Z,147.00
2023-03-01T03:37:04.412Z,146.17
2023-03-01T03:38:16.453Z,146.00
2023-03-01T03:39:20.652Z,147.50
2023-03-01T03:40:23.055Z,148.00
2023-03-01T03:41:25.429Z,147.50
2023-03-01T03:42:27.770Z,145.83
2023-03-01T03:43:32.075Z,142.67
2023-03-01T03:44:34.454Z,139.00
2023-03-01T03:45:37.465Z,139.00
2023-03-01T03:46:39.828Z,139.00
2023-03-01T03:47:43.131Z,139.83
2023-03-01T03:48:46.775Z,141.33
2023-03-01T03:49:49.125Z,143.33
2023-03-01T03:50:53.997Z,144.00
2023-03-01T03:51:56.349Z,143.50
2023-03-01T03:52:58.740Z,143.67
2023-03-01T03:54:01.184Z,147.17
2023-03-01T03:55:04.481Z,156.50
2023-03-01T03:56:07.436Z,162.83
2023-03-01T03:57:09.828Z,168.17
2023-03-01T03:58:12.213Z,169.83
2023-03-01T03:59:14.678Z,173.33
2023-03-01T04:00:17.466Z,170.50
2023-03-01T04:01:20.097Z,167.33
2023-03-01T04:02:25.502Z,163.83
2023-03-01T04:03:29.031Z,161.00
2023-03-01T04:04:31.441Z,160.33
2023-03-01T04:05:34.174Z,161.67
2023-03-01T04:06:36.571Z,158.83
2023-03-01T04:07:39.461Z,157.00
2023-03-01T04:08:41.933Z,157.83
2023-03-01T04:09:44.884Z,160.50
2023-03-01T04:10:49.018Z,161.00
2023-03-01T04:11:51.376Z,163.67
2023-03-01T04:12:53.744Z,171.67
2023-03-01T04:13:58.859Z,172.50
2023-03-01T04:15:13.703Z,171.33
2023-03-01T04:16:16.739Z,170.83
2023-03-01T04:17:20.124Z,170.00
2023-03-01T04:18:24.288Z,169.83
2023-03-01T04:19:28.093Z,170.00
2023-03-01T04:20:34.600Z,170.00
2023-03-01T04:21:37.304Z,171.33
2023-03-01T04:22:40.583Z,173.00
2023-03-01T04:23:43.872Z,172.00
2023-03-01T04:24:46.278Z,171.67
2023-03-01T04:25:59.517Z,171.17
2023-03-01T04:27:02.384Z,171.00
2023-03-01T04:28:04.887Z,170.67
2023-03-01T04:29:07.255Z,169.17
2023-03-01T04:30:10.545Z,169.00
2023-03-01T04:31:19.464Z,171.50
2023-03-01T04:32:21.872Z,176.17
2023-03-01T04:33:25.074Z,175.67
2023-03-01T04:34:30.252Z,175.00
2023-03-01T04:35:33.107Z,173.33
2023-03-01T04:36:36.869Z,172.50
2023-03-01T04:37:39.633Z,170.00
2023-03-01T04:38:42.963Z,167.33
2023-03-01T04:39:48.418Z,163.33
2023-03-01T04:40:50.794Z,161.17
2023-03-01T04:41:53.693Z,158.17
2023-03-01T04:42:56.136Z,156.33
2023-03-01T04:44:01.153Z,154.83
2023-03-01T04:45:03.734Z,154.33
2023-03-01T04:46:10.246Z,154.50
2023-03-01T04:47:13.736Z,154.33
2023-03-01T04:48:16.165Z,152.67
2023-03-01T04:49:18.631Z,153.00
2023-03-01T04:50:22.752Z,153.67
2023-03-01T04:51:25.236Z,155.00
2023-03-01T04:52:27.581Z,155.00
2023-03-01T04:53:30.503Z,152.17
2023-03-01T04:54:33.785Z,147.33
2023-03-01T04:55:36.148Z,142.67
2023-03-01T04:56:38.540Z,139.17
2023-03-01T04:57:41.284Z,141.17
2023-03-01T04:58:44.052Z,141.67
2023-03-01T04:59:46.420Z,139.83
2023-03-01T05:00:48.789Z,141.33
2023-03-01T05:01:58.060Z,142.00
2023-03-01T05:03:01.803Z,142.83
2023-03-01T05:04:06.344Z,142.00
2023-03-01T05:05:08.758Z,142.67
2023-03-01T05:06:11.911Z,140.67
2023-03-01T05:07:20.423Z,138.83
2023-03-01T05:08:22.865Z,141.17
2023-03-01T05:09:25.225Z,142.83
2023-03-01T05:10:32.891Z,146.67
2023-03-01T05:11:36.950Z,149.17
2023-03-01T05:12:39.341Z,162.67
2023-03-01T05:13:41.745Z,178.50
2023-03-01T05:14:44.140Z,176.83
2023-03-01T05:15:46.511Z,173.17
2023-03-01T05:16:48.891Z,169.67
2023-03-01T05:17:51.332Z,168.33
2023-03-01T05:18:53.681Z,173.50
2023-03-01T05:19:56.698Z,173.83
2023-03-01T05:21:07.978Z,169.83
2023-03-01T05:22:10.425Z,155.50
2023-03-01T05:23:12.969Z,142.00
2023-03-01T05:24:15.401Z,141.50
2023-03-01T05:25:17.986Z,141.67
2023-03-01T05:26:28.273Z,142.83
2023-03-01T05:27:31.300Z,142.17
2023-03-01T05:28:33.754Z,142.50
2023-03-01T05:29:36.109Z,141.17
2023-03-01T05:30:40.174Z,138.33
2023-03-01T05:31:42.488Z,137.67
2023-03-01T05:32:47.469Z,135.00
2023-03-01T05:34:31.138Z,134.33
2023-03-01T05:35:34.017Z,130.00
2023-03-01T05:36:36.437Z,127.00
2023-03-01T05:37:38.802Z,127.33
2023-03-01T05:38:41.180Z,128.50
2023-03-01T05:39:43.545Z,125.50
2023-03-01T05:40:48.564Z,125.17
2023-03-01T05:41:58.971Z,126.50
2023-03-01T05:43:01.524Z,127.50
2023-03-01T05:44:05.898Z,128.50
2023-03-01T05:45:10.646Z,130.33
2023-03-01T05:46:14.494Z,130.00
2023-03-01T05:47:16.926Z,125.17
2023-03-01T05:48:20.665Z,122.83
2023-03-01T05:49:26.973Z,123.17
2023-03-01T05:50:31.109Z,124.00
2023-03-01T05:51:34.991Z,123.67
2023-03-01T05:52:37.353Z,122.50
2023-03-01T05:53:39.736Z,121.83
2023-03-01T05:54:42.088Z,122.67
2023-03-01T05:55:45.294Z,123.00
2023-03-01T05:56:48.037Z,125.83
2023-03-01T05:57:51.146Z,128.83
2023-03-01T05:58:53.511Z,130.33
2023-03-01T05:59:55.968Z,130.83
2023-03-01T06:00:58.851Z,131.00
2023-03-01T06:02:01.296Z,129.83
2023-03-01T06:03:04.322Z,127.67
2023-03-01T06:04:06.745Z,126.67
2023-03-01T06:05:10.934Z,127.00
2023-03-01T06:06:13.383Z,125.83
2023-03-01T06:07:15.780Z,122.83
2023-03-01T06:08:18.186Z,119.67
2023-03-01T06:09:23.556Z,119.33
2023-03-01T06:10:25.898Z,119.17
2023-03-01T06:11:30.399Z,114.83
2023-03-01T06:12:37.685Z,113.00
2023-03-01T06:13:40.043Z,113.50
2023-03-01T06:14:42.412Z,114.00
2023-03-01T06:15:44.802Z,114.00
2023-03-01T06:16:47.189Z,112.67
2023-03-01T06:17:50.233Z,110.83
2023-03-01T06:18:52.588Z,106.33
2023-03-01T06:19:54.959Z,105.33
2023-03-01T06:20:57.476Z,105.33
2023-03-01T06:21:59.881Z,103.17
2023-03-01T06:23:02.371Z,100.33
2023-03-01T06:24:07.052Z,101.33
2023-03-01T06:25:10.035Z,101.67
2023-03-01T06:26:12.385Z,100.67
2023-03-01T06:27:14.749Z,97.83
2023-03-01T06:28:17.321Z,97.67
2023-03-01T06:29:19.696Z,98.33
2023-03-01T06:30:23.438Z,98.50
2023-03-01T06:31:25.851Z,99.33
2023-03-01T06:32:28.260Z,100.00
2023-03-01T06:33:30.628Z,100.00
2023-03-01T06:34:33.266Z,100.67
2023-03-01T06:35:35.834Z,101.83
2023-03-01T06:36:38.238Z,103.17
2023-03-01T06:37:41.535Z,105.67
2023-03-01T06:38:44.281Z,104.33
2023-03-01T06:39:46.617Z,104.67
2023-03-01T06:40:56.203Z,105.83
2023-03-01T06:41:59.492Z,106.00
2023-03-01T06:43:02.206Z,106.00
2023-03-01T06:44:04.875Z,104.83
2023-03-01T06:45:08.423Z,99.83
2023-03-01T06:46:10.833Z,93.50
2023-03-01T06:47:13.256Z,90.00
2023-03-01T06:48:15.927Z,89.67
2023-03-01T06:49:18.911Z,89.17
2023-03-01T06:50:21.293Z,90.50
2023-03-01T06:51:23.685Z,89.67
2023-03-01T06:52:26.794Z,88.83
2023-03-01T06:53:30.260Z,88.83
2023-03-01T06:54:32.620Z,89.67
2023-03-01T06:55:35.043Z,90.00
2023-03-01T06:56:37.467Z,90.33
2023-03-01T06:57:40.897Z,91.00
2023-03-01T06:58:43.274Z,90.00
2023-03-01T06:59:45.733Z,88.83
2023-03-01T07:00:48.107Z,89.33
2023-03-01T07:01:50.446Z,90.00
2023-03-01T07:02:53.030Z,89.33
2023-03-01T07:03:55.465Z,88.50
2023-03-01T07:04:57.882Z,88.33
2023-03-01T07:06:00.377Z,89.00
2023-03-01T07:07:02.743Z,89.00
2023-03-01T07:08:05.244Z,89.00
2023-03-01T07:09:07.630Z,87.67
2023-03-01T07:10:11.078Z,84.50
2023-03-01T07:11:13.567Z,83.33
2023-03-01T07:12:16.370Z,83.00
2023-03-01T07:13:18.750Z,83.00
2023-03-01T07:14:21.120Z,82.50
2023-03-01T07:15:23.600Z,78.50
2023-03-01T07:16:26.016Z,75.00
2023-03-01T07:17:28.500Z,75.50
2023-03-01T07:18:30.877Z,76.33
2023-03-01T07:19:33.260Z,77.33
2023-03-01T07:20:35.971Z,79.17
2023-03-01T07:21:41.730Z,83.50
2023-03-01T07:22:44.365Z,84.83
2023-03-01T07:23:48.962Z,84.50
2023-03-01T07:24:51.346Z,83.33
2023-03-01T07:25:56.590Z,81.67
2023-03-01T07:27:01.900Z,81.00
2023-03-01T07:28:04.457Z,79.00
2023-03-01T07:29:08.793Z,78.00
2023-03-01T07:30:11.621Z,77.00
2023-03-01T07:31:14.180Z,77.00
2023-03-01T07:32:16.633Z,77.50
2023-03-01T07:33:19.122Z,78.33
2023-03-01T07:34:21.551Z,79.17
2023-03-01T07:35:26.050Z,80.00
2023-03-01T07:36:28.920Z,79.67
2023-03-01T07:37:31.378Z,81.00
2023-03-01T07:38:33.972Z,82.83
2023-03-01T07:39:36.340Z,82.67
2023-03-01T07:40:38.830Z,77.67
2023-03-01T07:41:41.248Z,71.83
2023-03-01T07:42:43.645Z,66.00
2023-03-01T07:43:46.014Z,63.50
2023-03-01T07:44:48.391Z,64.50
2023-03-01T07:45:53.167Z,65.00
2023-03-01T07:46:57.432Z,65.33
2023-03-01T07:47:59.817Z,64.83
2023-03-01T07:49:02.278Z,65.00
2023-03-01T07:50:05.089Z,65.33
2023-03-01T07:51:08.578Z,66.83
2023-03-01T07:52:13.076Z,67.00
2023-03-01T07:53:15.445Z,67.00
2023-03-01T07:54:17.828Z,65.67
2023-03-01T07:55:21.110Z,65.67
2023-03-01T07:56:23.624Z,66.33
2023-03-01T07:57:26.228Z,67.17
2023-03-01T07:58:28.608Z,68.50
2023-03-01T07:59:31.049Z,70.00
2023-03-01T08:00:33.507Z,71.00
2023-03-01T08:01:35.924Z,71.00
2023-03-01T08:02:38.350Z,70.17
2023-03-01T08:03:40.969Z,69.50
2023-03-01T08:04:43.924Z,68.33
2023-03-01T08:05:46.319Z,68.00
2023-03-01T08:06:48.704Z,68.17
2023-03-01T08:07:51.253Z,69.00
2023-03-01T08:08:56.397Z,68.67
2023-03-01T08:09:58.924Z,68.50
2023-03-01T08:11:03.248Z,69.00
2023-03-01T08:12:06.763Z,69.83
2023-03-01T08:13:09.160Z,72.00
2023-03-01T08:14:14.358Z,74.33
2023-03-01T08:15:16.759Z,75.67
2023-03-01T08:16:19.157Z,77.00
2023-03-01T08:17:22.305Z,77.00
2023-03-01T08:18:26.450Z,76.33
2023-03-01T08:19:29.285Z,74.50
2023-03-01T08:20:31.900Z,74.00
2023-03-01T08:21:35.848Z,73.17
2023-03-01T08:22:38.279Z,73.00
2023-03-01T08:23:41.277Z,73.17
2023-03-01T08:24:43.794Z,73.83
2023-03-01T08:25:46.176Z,73.17
2023-03-01T08:26:48.638Z,72.17
2023-03-01T08:27:51.139Z,70.67
2023-03-01T08:28:53.635Z,68.33
2023-03-01T08:29:56.007Z,68.00
2023-03-01T08:30:58.355Z,68.00
2023-03-01T08:32:00.988Z,67.33
2023-03-01T08:33:03.521Z,65.67
2023-03-01T08:34:09.276Z,63.33
2023-03-01T08:35:11.737Z,60.33
2023-03-01T08:36:14.070Z,60.50
2023-03-01T08:37:16.409Z,61.00
2023-03-01T08:38:18.891Z,61.00
2023-03-01T08:39:21.982Z,62.00
2023-03-01T08:40:24.401Z,62.17
2023-03-01T08:41:27.293Z,63.67
2023-03-01T08:42:29.634Z,64.00
2023-03-01T08:43:32.090Z,64.83
2023-03-01T08:44:36.097Z,65.00
2023-03-01T08:45:38.579Z,66.00
2023-03-01T08:46:42.312Z,67.00
2023-03-01T08:47:46.161Z,66.17
2023-03-01T08:48:49.681Z,66.00
2023-03-01T08:49:52.179Z,67.83
2023-03-01T08:50:54.578Z,70.17
2023-03-01T08:51:57.061Z,72.17
2023-03-01T08:52:59.472Z,73.00
2023-03-01T08:54:04.811Z,73.17
2023-03-01T08:55:08.001Z,73.00
2023-03-01T08:56:10.459Z,72.00
2023-03-01T08:57:13.800Z,72.00
2023-03-01T08:58:16.210Z,71.67
2023-03-01T08:59:19.825Z,69.50
2023-03-01T09:00:22.849Z,68.33
2023-03-01T09:01:25.504Z,67.17
2023-03-01T09:02:27.996Z,66.50
2023-03-01T09:03:30.408Z,66.00
2023-03-01T09:04:33.030Z,66.00
2023-03-01T09:05:37.208Z,66.50
2023-03-01T09:06:39.608Z,67.00
2023-03-01T09:07:41.979Z,66.17
2023-03-01T09:08:46.813Z,65.00
2023-03-01T09:09:49.184Z,65.83
2023-03-01T09:10:51.728Z,64.33
2023-03-01T09:11:54.134Z,62.17
2023-03-01T09:12:56.506Z,61.67
2023-03-01T09:13:58.890Z,60.00
2023-03-01T09:15:01.274Z,60.00
2023-03-01T09:16:05.859Z,59.83
2023-03-01T09:17:08.297Z,60.17
2023-03-01T09:18:10.767Z,61.00
2023-03-01T09:19:13.290Z,62.00
2023-03-01T09:20:15.650Z,62.00
2023-03-01T09:21:25.006Z,61.33
2023-03-01T09:22:30.050Z,61.67
2023-03-01T09:23:32.416Z,62.00
2023-03-01T09:24:34.771Z,62.00
2023-03-01T09:25:37.091Z,62.00
2023-03-01T09:26:39.500Z,61.00
2023-03-01T09:27:41.887Z,58.67
2023-03-01T09:28:45.571Z,57.83
2023-03-01T09:29:47.931Z,57.67
2023-03-01T09:30:50.292Z,58.33
2023-03-01T09:31:56.146Z,59.67
2023-03-01T09:32:58.588Z,61.17
2023-03-01T09:34:00.961Z,62.83
2023-03-01T09:35:06.218Z,64.00
2023-03-01T09:36:14.551Z,65.33
2023-03-01T09:37:17.014Z,67.83
2023-03-01T09:38:19.439Z,69.83
2023-03-01T09:39:21.842Z,71.17
2023-03-01T09:40:25.511Z,72.00
2023-03-01T09:41:36.701Z,72.00
2023-03-01T09:42:48.283Z,71.17
2023-03-01T09:44:01.490Z,71.00
2023-03-01T09:45:13.222Z,69.17
2023-03-01T09:46:20.047Z,64.83
2023-03-01T09:47:29.527Z,63.50
2023-03-01T09:48:58.822Z,64.00
2023-03-01T09:50:08.486Z,63.67
2023-03-01T09:51:20.603Z,65.33
2023-03-01T09:52:39.910Z,66.33
2023-03-01T09:53:42.674Z,68.67
2023-03-01T09:54:45.064Z,69.00
2023-03-01T09:55:52.291Z,68.17
2023-03-01T09:57:05.089Z,65.67
2023-03-01T09:58:36.306Z,62.50
2023-03-01T09:59:57.394Z,61.83
2023-03-01T10:01:11.841Z,60.67
2023-03-01T10:02:42.388Z,57.83
2023-03-01T10:03:50.337Z,57.83
2023-03-01T10:04:56.931Z,58.00
2023-03-01T10:06:34.370Z,58.00
2023-03-01T10:08:03.999Z,58.00
2023-03-01T10:09:15.244Z,58.00
2023-03-01T10:10:28.492Z,57.33
2023-03-01T10:11:38.856Z,56.67
2023-03-01T10:12:43.643Z,56.00
2023-03-01T10:13:55.484Z,55.50
2023-03-01T10:15:16.617Z,55.67
2023-03-01T10:16:26.382Z,56.00
2023-03-01T10:17:35.970Z,56.00
2023-03-01T10:18:41.620Z,56.00
2023-03-01T10:19:47.980Z,56.00
2023-03-01T10:21:01.997Z,56.00
2023-03-01T10:22:30.778Z,56.00
2023-03-01T10:23:35.865Z,56.00
2023-03-01T10:24:38.352Z,56.00
2023-03-01T10:25:46.117Z,55.33
2023-03-01T10:26:53.203Z,55.00
2023-03-01T10:28:03.002Z,53.50
2023-03-01T10:29:11.417Z,51.33
2023-03-01T10:30:34.050Z,51.00
2023-03-01T10:31:42.140Z,51.33
2023-03-01T10:32:45.684Z,62.17
2023-03-01T10:33:52.596Z,79.17
2023-03-01T10:34:55.058Z,74.67
2023-03-01T10:35:58.233Z,71.33
2023-03-01T10:37:09.452Z,69.67
2023-03-01T10:38:14.652Z,68.50
2023-03-01T10:39:22.920Z,67.50
2023-03-01T10:40:25.699Z,65.50
2023-03-01T10:41:31.336Z,62.83
2023-03-01T10:45:46.593Z,54.00
2023-03-01T10:47:06.182Z,49.50
2023-03-01T10:48:27.490Z,48.67
2023-03-01T10:49:29.909Z,48.00
2023-03-01T10:50:32.990Z,48.00
2023-03-01T10:51:35.483Z,49.00
2023-03-01T10:52:41.857Z,49.00
2023-03-01T10:53:49.948Z,50.00
2023-03-01T10:55:17.409Z,49.17
2023-03-01T10:56:19.957Z,49.00
2023-03-01T10:57:44.397Z,49.83
2023-03-01T10:59:05.105Z,62.83
2023-03-01T11:00:26.221Z,62.00
2023-03-01T11:01:33.290Z,62.00
2023-03-01T11:02:37.857Z,60.67
2023-03-01T11:03:40.595Z,59.33
2023-03-01T11:05:13.626Z,59.00
2023-03-01T11:06:23.251Z,57.83
2023-03-01T11:07:25.791Z,56.00
2023-03-01T11:08:51.727Z,53.83
2023-03-01T11:09:54.244Z,52.00
2023-03-01T11:11:06.593Z,51.00
2023-03-01T11:12:16.520Z,51.17
2023-03-01T11:13:20.563Z,52.00
2023-03-01T11:14:28.697Z,51.17
2023-03-01T11:15:31.480Z,51.00
2023-03-01T11:16:37.198Z,51.00
2023-03-01T11:17:53.779Z,51.17
2023-03-01T11:19:11.688Z,52.00
2023-03-01T11:20:14.115Z,53.83
2023-03-01T11:21:17.622Z,55.00
2023-03-01T11:22:22.873Z,55.00
2023-03-01T11:23:26.940Z,55.00
2023-03-01T11:25:07.389Z,55.00
2023-03-01T11:26:14.352Z,54.17
2023-03-01T11:27:27.345Z,54.00
2023-03-01T11:28:30.868Z,55.67
2023-03-01T11:29:47.896Z,57.83
2023-03-01T11:31:08.371Z,59.67
2023-03-01T11:32:15.008Z,59.50
2023-03-01T11:33:17.439Z,60.50
2023-03-01T11:34:37.510Z,60.67
2023-03-01T11:35:45.607Z,60.00
2023-03-01T11:36:58.274Z,60.83
2023-03-01T11:38:21.224Z,61.00
2023-03-01T11:39:28.904Z,61.00
2023-03-01T11:40:37.372Z,61.00
2023-03-01T11:41:42.670Z,61.00
2023-03-01T11:42:57.704Z,61.00
2023-03-01T11:44:26.999Z,64.00
2023-03-01T11:45:51.806Z,65.67
2023-03-01T11:47:03.781Z,67.83
2023-03-01T11:48:47.100Z,68.00
2023-03-01T11:49:58.177Z,67.00
2023-03-01T11:51:07.238Z,67.00
2023-03-01T11:52:43.458Z,67.50
2023-03-01T11:53:45.772Z,68.00
2023-03-01T11:55:19.016Z,68.17
2023-03-01T11:56:43.125Z,69.17
2023-03-01T11:58:22.733Z,73.50
2023-03-01T11:59:50.993Z,73.17
2023-03-01T12:01:26.777Z,78.67
2023-03-01T12:03:14.260Z,80.17
2023-03-01T12:04:55.157Z,77.83
2023-03-01T12:06:17.294Z,76.83
2023-03-01T12:07:40.000Z,78.50
2023-03-01T12:08:44.005Z,82.83
2023-03-01T12:10:11.309Z,87.17
2023-03-01T12:11:35.130Z,87.83
2023-03-01T12:13:18.433Z,88.50
2023-03-01T12:14:23.560Z,87.33
2023-03-01T12:15:40.704Z,87.17
2023-03-01T12:17:37.261Z,87.67
2023-03-01T12:19:27.732Z,86.33
2023-03-01T12:20:44.943Z,81.33
2023-03-01T12:22:03.199Z,77.50
2023-03-01T12:23:28.262Z,76.33
2023-03-01T12:24:52.404Z,94.33
2023-03-01T12:26:03.515Z,95.00
2023-03-01T12:27:05.816Z,92.67
2023-03-01T12:28:26.599Z,91.67
2023-03-01T12:29:31.995Z,90.33
2023-03-01T12:30:59.597Z,89.33
2023-03-01T12:32:10.762Z,88.17
2023-03-01T12:33:31.450Z,88.00
2023-03-01T12:34:44.556Z,88.00
2023-03-01T12:36:02.259Z,87.33
2023-03-01T12:37:26.417Z,85.83
2023-03-01T12:38:43.793Z,84.83
2023-03-01T12:40:24.843Z,83.00
2023-03-01T12:41:42.422Z,81.17
2023-03-01T12:42:48.489Z,78.83
2023-03-01T12:44:19.959Z,78.00
2023-03-01T12:46:10.347Z,80.17
2023-03-01T12:47:50.112Z,81.83
2023-03-01T12:49:02.128Z,84.33
2023-03-01T12:50:19.414Z,91.83
2023-03-01T12:51:28.300Z,95.83
2023-03-01T12:52:54.514Z,94.33
2023-03-01T12:53:58.745Z,107.33
2023-03-01T12:55:05.276Z,102.83
2023-03-01T12:56:13.017Z,100.67
2023-03-01T12:57:41.712Z,96.17
2023-03-01T12:58:58.903Z,89.33
2023-03-01T13:01:39.454Z,87.67
2023-03-01T13:03:33.394Z,91.00
2023-03-01T13:04:42.423Z,91.00
2023-03-01T13:06:07.910Z,89.83
2023-03-01T13:07:32.258Z,89.83
2023-03-01T13:08:42.274Z,93.00
2023-03-01T13:10:07.107Z,89.83
2023-03-01T13:11:27.758Z,85.17
2023-03-01T13:12:57.670Z,81.67
2023-03-01T13:14:22.671Z,80.17
2023-03-01T13:15:27.004Z,77.00
2023-03-01T13:16:31.639Z,75.17
2023-03-01T13:17:45.779Z,76.00
2023-03-01T13:18:50.824Z,77.00
2023-03-01T13:20:02.836Z,77.50
2023-03-01T13:21:08.471Z,81.17
2023-03-01T13:22:33.412Z,89.33
2023-03-01T13:23:40.807Z,111.33
2023-03-01T13:24:44.221Z,138.50
2023-03-01T13:26:09.273Z,131.33
2023-03-01T13:27:19.254Z,115.33
2023-03-01T13:28:36.653Z,110.00
2023-03-01T13:29:45.206Z,96.83
2023-03-01T13:30:47.551Z,91.67
2023-03-01T13:32:02.819Z,87.50
2023-03-01T13:33:26.860Z,87.83
2023-03-01T13:34:53.325Z,82.17
2023-03-01T13:35:59.919Z,82.00
2023-03-01T13:37:19.953Z,79.00
2023-03-01T13:38:45.411Z,79.17
2023-03-01T13:39:48.175Z,81.67
2023-03-01T13:40:50.516Z,82.83
2023-03-01T13:41:54.895Z,80.83
2023-03-01T13:43:28.980Z,77.33
2023-03-01T13:44:34.967Z,75.00
2023-03-01T13:45:42.105Z,72.00
2023-03-01T13:46:45.892Z,73.50
2023-03-01T13:47:54.153Z,78.33
2023-03-01T13:48:58.404Z,89.50
2023-03-01T13:50:05.133Z,99.33
2023-03-01T13:51:12.191Z,97.17
2023-03-01T13:52:38.291Z,95.17
2023-03-01T13:53:46.675Z,89.33
2023-03-01T13:54:49.185Z,82.83
2023-03-01T13:56:17.110Z,74.33
2023-03-01T13:57:25.024Z,68.00
2023-03-01T13:58:30.596Z,69.50
2023-03-01T13:59:33.030Z,66.67
2023-03-01T14:00:40.722Z,64.17
2023-03-01T14:01:43.995Z,65.83
2023-03-01T14:02:47.755Z,67.67
2023-03-01T14:03:51.599Z,68.67
2023-03-01T14:04:59.178Z,68.00
2023-03-01T14:06:19.093Z,65.00
2023-03-01T14:07:30.504Z,62.83
2023-03-01T14:08:34.606Z,63.83
2023-03-01T14:09:42.973Z,70.00
2023-03-01T14:10:57.515Z,73.00
2023-03-01T14:12:37.878Z,74.33
2023-03-01T14:14:09.546Z,76.50
2023-03-01T14:15:50.198Z,76.00